Time;durP1;ratioP1;P1;durP2;ratioP2;P2;SDS_P1;SDS_P2;PMS_P1;PMS_P2;Temp;Humidity;BMP_temperature;BMP_pressure;BME280_temperature;BME280_humidity;BME280_pressure;Samples;Min_cycle;Max_cycle;Signal;HPM_P1;HPM_P2
2024/03/22 00:01:52;;;;;;;4.57;3.87;;;23.20;55.60;;;;;;4994322;28;20416;-70
2024/03/22 00:04:17;;;;;;;4.63;3.53;;;23.20;55.60;;;;;;4994241;28;20420;-70
2024/03/22 00:06:46;;;;;;;6.33;3.50;;;23.20;55.60;;;;;;4993587;28;20409;-70
2024/03/22 00:09:11;;;;;;;5.47;4.10;;;23.20;55.60;;;;;;4994033;28;20228;-70
2024/03/22 00:11:39;;;;;;;4.33;2.77;;;23.20;55.60;;;;;;4994031;28;20821;-70
2024/03/22 00:14:05;;;;;;;7.37;4.70;;;23.20;55.60;;;;;;4993598;28;20221;-69
2024/03/22 00:16:31;;;;;;;6.00;3.37;;;23.20;55.60;;;;;;4994071;28;20825;-69
2024/03/22 00:18:56;;;;;;;4.80;3.83;;;23.20;55.60;;;;;;4976223;28;20176;-69
2024/03/22 00:21:23;;;;;;;3.93;3.53;;;23.20;55.70;;;;;;4993734;28;20205;-68
2024/03/22 00:23:48;;;;;;;4.77;3.70;;;23.20;55.60;;;;;;4975945;28;20181;-70
2024/03/22 00:26:14;;;;;;;4.23;3.30;;;23.20;55.60;;;;;;4993788;28;20419;-70
2024/03/22 00:28:40;;;;;;;5.00;3.40;;;23.20;55.60;;;;;;4993763;28;20551;-69
2024/03/22 00:31:05;;;;;;;4.97;3.57;;;23.20;55.60;;;;;;4993441;28;20574;-69
2024/03/22 00:33:31;;;;;;;3.70;3.30;;;23.20;55.60;;;;;;4993445;28;20216;-70
2024/03/22 00:35:57;;;;;;;4.70;3.77;;;23.20;55.60;;;;;;4993932;28;20176;-69
2024/03/22 00:38:23;;;;;;;4.90;3.70;;;23.20;55.60;;;;;;4993484;28;20412;-69
2024/03/22 00:40:49;;;;;;;4.50;4.10;;;23.20;55.60;;;;;;4993481;28;20813;-68
2024/03/22 00:43:14;;;;;;;3.43;3.03;;;23.20;55.60;;;;;;4974978;28;20211;-68
2024/03/22 00:45:40;;;;;;;4.10;3.40;;;23.20;55.60;;;;;;4993636;28;20173;-69
2024/03/22 00:48:05;;;;;;;3.57;3.27;;;23.20;55.60;;;;;;4993444;28;20177;-67
2024/03/22 00:50:31;;;;;;;4.70;3.33;;;23.20;55.60;;;;;;4993258;28;20733;-68
2024/03/22 00:52:57;;;;;;;5.63;3.67;;;23.20;55.60;;;;;;4993437;28;20312;-68
2024/03/22 00:55:23;;;;;;;3.30;2.70;;;23.20;55.60;;;;;;4993397;28;20722;-67
2024/03/22 00:57:48;;;;;;;4.23;3.60;;;23.20;55.60;;;;;;4993309;28;20184;-67
2024/03/22 01:00:15;;;;;;;8.10;3.90;;;23.20;55.60;;;;;;4993272;28;20424;-69
2024/03/22 01:02:41;;;;;;;4.33;3.90;;;23.20;55.60;;;;;;4993562;28;20212;-68
2024/03/22 01:05:07;;;;;;;5.40;3.77;;;23.20;55.60;;;;;;4993276;28;20459;-69
2024/03/22 01:07:32;;;;;;;4.43;3.00;;;23.20;55.60;;;;;;4993159;28;20177;-69
2024/03/22 01:09:58;;;;;;;4.70;3.73;;;23.20;55.60;;;;;;4993562;28;20482;-70
2024/03/22 01:12:24;;;;;;;3.60;2.97;;;23.20;55.60;;;;;;4992963;28;20193;-70
2024/03/22 01:14:49;;;;;;;5.93;3.37;;;23.20;55.70;;;;;;4992999;28;20260;-70
2024/03/22 01:17:15;;;;;;;4.50;3.20;;;23.20;55.70;;;;;;4992939;28;20284;-70
2024/03/22 01:19:40;;;;;;;5.97;3.80;;;23.20;55.70;;;;;;4993601;28;20288;-68
2024/03/22 01:22:06;;;;;;;4.43;3.30;;;23.20;55.70;;;;;;4993089;28;20180;-69
2024/03/22 01:24:32;;;;;;;4.80;3.20;;;23.20;55.60;;;;;;4993077;28;20684;-70
2024/03/22 01:26:57;;;;;;;4.27;3.50;;;23.20;55.70;;;;;;4992848;28;20185;-69
2024/03/22 01:29:23;;;;;;;4.70;4.03;;;23.20;55.60;;;;;;4992926;28;20200;-69
2024/03/22 01:31:48;;;;;;;4.03;3.63;;;23.20;55.60;;;;;;4993086;28;20193;-70
2024/03/22 01:34:14;;;;;;;3.77;2.90;;;23.20;55.60;;;;;;4993415;28;20919;-70
2024/03/22 01:36:40;;;;;;;3.83;3.10;;;23.20;55.60;;;;;;4992378;28;20177;-69
2024/03/22 01:39:06;;;;;;;5.13;3.57;;;23.20;55.60;;;;;;4992267;28;20467;-69
2024/03/22 01:41:31;;;;;;;3.73;3.43;;;23.20;55.60;;;;;;4992827;28;20647;-69
2024/03/22 01:43:58;;;;;;;4.53;3.67;;;23.20;55.60;;;;;;4975426;28;20177;-69
2024/03/22 01:46:24;;;;;;;4.23;3.10;;;23.20;55.60;;;;;;4992683;28;20598;-69
2024/03/22 01:48:50;;;;;;;4.70;3.80;;;23.20;55.60;;;;;;4992495;28;20455;-69
2024/03/22 01:51:16;;;;;;;4.27;3.30;;;23.20;55.60;;;;;;4992134;28;20552;-69
2024/03/22 01:53:42;;;;;;;4.07;3.00;;;23.20;55.60;;;;;;4993251;28;20919;-70
2024/03/22 01:56:08;;;;;;;4.73;3.43;;;23.20;55.60;;;;;;4995656;28;20530;-70
2024/03/22 01:58:33;;;;;;;3.10;2.80;;;23.20;55.60;;;;;;4996125;28;20177;-69
2024/03/22 02:00:59;;;;;;;3.53;3.23;;;23.20;55.60;;;;;;4995646;28;20427;-69
2024/03/22 02:03:25;;;;;;;5.00;3.40;;;23.20;55.60;;;;;;4996052;28;20177;-69
2024/03/22 02:05:50;;;;;;;3.40;3.10;;;23.20;55.60;;;;;;4995933;28;20174;-70
2024/03/22 02:08:16;;;;;;;5.13;3.60;;;23.20;55.60;;;;;;4995774;28;20200;-70
2024/03/22 02:10:42;;;;;;;4.57;3.23;;;23.20;55.60;;;;;;4995810;28;20202;-70
2024/03/22 02:13:08;;;;;;;3.43;3.13;;;23.20;55.60;;;;;;4995760;28;20191;-69
2024/03/22 02:15:33;;;;;;;4.37;2.97;;;23.20;55.60;;;;;;4995832;28;20416;-69
2024/03/22 02:17:59;;;;;;;4.83;2.83;;;23.20;55.60;;;;;;4995975;28;20276;-69
2024/03/22 02:20:25;;;;;;;4.13;3.60;;;23.20;55.60;;;;;;4995515;28;20263;-70
2024/03/22 02:22:50;;;;;;;4.17;3.40;;;23.20;55.60;;;;;;4996342;28;20213;-70
2024/03/22 02:25:16;;;;;;;4.30;3.07;;;23.20;55.60;;;;;;4995362;28;20169;-69
2024/03/22 02:27:42;;;;;;;4.97;3.47;;;23.20;55.60;;;;;;4995422;28;20177;-70
2024/03/22 02:30:08;;;;;;;4.13;3.00;;;23.20;55.60;;;;;;4995558;28;20184;-70
2024/03/22 02:32:33;;;;;;;3.70;2.87;;;23.20;55.60;;;;;;4995879;28;20900;-69
2024/03/22 02:34:59;;;;;;;3.57;3.10;;;23.20;55.60;;;;;;4995177;28;20487;-70
2024/03/22 02:37:25;;;;;;;4.90;3.40;;;23.20;55.60;;;;;;4995726;28;20228;-69
2024/03/22 02:39:50;;;;;;;3.40;3.10;;;23.20;55.60;;;;;;4995124;28;21125;-70
2024/03/22 02:42:16;;;;;;;3.80;2.67;;;23.20;55.60;;;;;;4994781;28;20184;-69
2024/03/22 02:44:44;;;;;;;3.87;2.83;;;23.20;55.60;;;;;;4995534;28;20177;-70
2024/03/22 02:47:10;;;;;;;3.30;3.00;;;23.20;55.60;;;;;;4995001;28;21064;-70
2024/03/22 02:49:37;;;;;;;2.83;2.63;;;23.20;55.60;;;;;;4995085;28;20466;-69
2024/03/22 02:52:03;;;;;;;4.23;3.00;;;23.20;55.60;;;;;;4995085;28;20967;-70
2024/03/22 02:54:28;;;;;;;4.70;3.10;;;23.20;55.60;;;;;;4995315;28;20515;-69
2024/03/22 02:56:54;;;;;;;3.23;2.90;;;23.20;55.60;;;;;;4995210;28;20253;-70
2024/03/22 02:59:19;;;;;;;3.70;3.00;;;23.20;55.60;;;;;;4994791;28;20197;-69
2024/03/22 03:01:45;;;;;;;4.30;3.20;;;23.20;55.60;;;;;;4995321;28;20187;-70
2024/03/22 03:04:11;;;;;;;4.30;2.93;;;23.20;55.60;;;;;;4995081;28;20239;-69
2024/03/22 03:06:36;;;;;;;3.70;3.13;;;23.20;55.60;;;;;;4994083;28;20656;-69
2024/03/22 03:09:02;;;;;;;3.60;2.90;;;23.20;55.60;;;;;;4994880;28;20173;-69
2024/03/22 03:11:27;;;;;;;3.40;3.10;;;23.20;55.60;;;;;;4994758;28;20220;-69
2024/03/22 03:13:53;;;;;;;4.00;2.93;;;23.20;55.60;;;;;;4994961;28;20180;-70
2024/03/22 03:16:18;;;;;;;4.40;3.50;;;23.20;55.60;;;;;;4994681;28;20196;-70
2024/03/22 03:18:44;;;;;;;4.00;2.73;;;23.20;55.60;;;;;;4994644;28;20703;-70
2024/03/22 03:21:09;;;;;;;3.00;2.70;;;23.20;55.60;;;;;;4976840;28;20578;-69
2024/03/22 03:23:35;;;;;;;3.43;2.73;;;23.10;55.50;;;;;;4994769;28;20212;-68
2024/03/22 03:26:01;;;;;;;3.50;3.20;;;23.20;55.60;;;;;;4994454;28;20542;-69
2024/03/22 03:28:27;;;;;;;3.30;2.87;;;23.20;55.60;;;;;;4994201;28;20177;-70
2024/03/22 03:30:53;;;;;;;2.90;2.60;;;23.20;55.60;;;;;;4993711;28;20197;-71
2024/03/22 03:33:18;;;;;;;3.70;2.80;;;23.20;55.60;;;;;;4994000;28;21020;-68
2024/03/22 03:35:47;;;;;;;3.20;2.73;;;23.20;55.60;;;;;;4994493;28;20169;-70
2024/03/22 03:38:13;;;;;;;4.30;3.27;;;23.20;55.60;;;;;;4993915;28;20644;-69
2024/03/22 03:40:38;;;;;;;4.20;2.93;;;23.20;55.60;;;;;;4993926;28;20432;-70
2024/03/22 03:43:04;;;;;;;2.87;2.43;;;23.20;55.60;;;;;;4994442;28;20502;-72
2024/03/22 03:45:29;;;;;;;3.63;2.80;;;23.20;55.60;;;;;;4993969;28;20181;-70
2024/03/22 03:47:55;;;;;;;4.57;3.13;;;23.20;55.60;;;;;;4994346;28;20524;-70
2024/03/22 03:50:20;;;;;;;3.37;2.40;;;23.20;55.60;;;;;;4975964;28;20224;-70
2024/03/22 03:52:46;;;;;;;3.43;2.80;;;23.20;55.60;;;;;;4993441;28;20279;-69
2024/03/22 03:55:12;;;;;;;3.50;3.20;;;23.20;55.60;;;;;;4994299;28;20177;-70
2024/03/22 03:57:37;;;;;;;2.90;2.60;;;23.20;55.60;;;;;;4993565;28;20769;-69
2024/03/22 04:00:04;;;;;;;3.30;3.00;;;23.20;55.60;;;;;;4993540;28;20189;-70
2024/03/22 04:02:29;;;;;;;2.97;2.40;;;23.20;55.60;;;;;;4993523;28;20547;-70
2024/03/22 04:04:55;;;;;;;4.20;2.93;;;23.20;55.60;;;;;;4993536;28;20414;-70
2024/03/22 04:07:21;;;;;;;3.00;2.70;;;23.20;55.60;;;;;;4993386;28;20731;-70
2024/03/22 04:09:47;;;;;;;3.20;2.30;;;23.10;55.50;;;;;;4993797;28;20204;-69
2024/03/22 04:12:13;;;;;;;3.63;2.90;;;23.10;55.50;;;;;;4993768;28;20495;-70
2024/03/22 04:14:38;;;;;;;3.47;2.67;;;23.20;55.60;;;;;;4993504;28;20165;-68
2024/03/22 04:17:04;;;;;;;2.67;2.40;;;23.20;55.60;;;;;;4993007;28;20827;-70
2024/03/22 04:19:30;;;;;;;3.17;2.70;;;23.20;55.60;;;;;;4993626;28;20685;-69
2024/03/22 04:21:55;;;;;;;3.23;2.53;;;23.20;55.60;;;;;;4993511;28;20259;-70
2024/03/22 04:24:21;;;;;;;3.20;2.90;;;23.10;55.50;;;;;;4993298;28;20260;-69
2024/03/22 04:26:47;;;;;;;2.53;2.33;;;23.10;55.50;;;;;;4993253;28;20169;-69
2024/03/22 04:29:12;;;;;;;3.20;2.63;;;23.10;55.50;;;;;;4993500;28;20211;-69
2024/03/22 04:31:38;;;;;;;3.20;2.90;;;23.10;55.50;;;;;;4993083;28;20263;-70
2024/03/22 04:34:05;;;;;;;3.20;2.90;;;23.10;55.50;;;;;;4993522;28;20351;-68
2024/03/22 04:36:31;;;;;;;3.30;3.00;;;23.10;55.50;;;;;;4993192;28;20173;-68
2024/03/22 04:38:57;;;;;;;3.87;2.47;;;23.10;55.50;;;;;;4993144;28;20420;-69
2024/03/22 04:41:22;;;;;;;4.53;2.87;;;23.10;55.50;;;;;;4993427;28;20415;-69
2024/03/22 04:43:48;;;;;;;4.33;2.83;;;23.10;55.50;;;;;;4993130;28;20609;-69
2024/03/22 04:46:13;;;;;;;3.43;2.73;;;23.10;55.50;;;;;;4993131;28;20169;-70
2024/03/22 04:48:39;;;;;;;3.13;2.77;;;23.10;55.50;;;;;;4993312;28;20182;-70
2024/03/22 04:51:05;;;;;;;3.07;2.77;;;23.10;55.50;;;;;;4992912;28;20323;-70
2024/03/22 04:53:30;;;;;;;3.13;2.30;;;23.20;55.60;;;;;;4993067;28;20177;-70
2024/03/22 04:55:56;;;;;;;3.03;2.50;;;23.20;55.50;;;;;;4992986;28;20169;-69
2024/03/22 04:58:22;;;;;;;3.40;2.37;;;23.10;55.50;;;;;;4993107;28;20200;-70
2024/03/22 05:00:56;;;;;;;3.77;2.97;;;23.10;55.50;;;;;;4992869;28;20192;-69
2024/03/22 05:03:22;;;;;;;3.00;2.30;;;23.20;55.70;;;;;;4975636;28;20234;-69
2024/03/22 05:05:49;;;;;;;3.50;2.33;;;23.10;55.50;;;;;;4975104;28;20436;-70
2024/03/22 05:08:14;;;;;;;2.90;2.17;;;23.10;55.50;;;;;;4992681;28;20224;-69
2024/03/22 05:10:40;;;;;;;3.03;2.50;;;23.20;55.60;;;;;;4992503;28;20796;-70
2024/03/22 05:13:06;;;;;;;2.60;2.40;;;23.20;55.50;;;;;;4992613;28;20297;-70
2024/03/22 05:15:31;;;;;;;5.33;2.80;;;23.20;55.50;;;;;;4992916;28;20185;-70
2024/03/22 05:17:58;;;;;;;3.70;2.83;;;23.20;55.50;;;;;;4975689;28;20564;-70
2024/03/22 05:20:23;;;;;;;3.03;2.40;;;23.20;55.50;;;;;;4992731;28;20200;-69
2024/03/22 05:22:49;;;;;;;2.67;2.47;;;23.20;55.50;;;;;;4993052;28;20424;-69
2024/03/22 05:25:15;;;;;;;3.10;2.53;;;23.20;55.50;;;;;;4993175;28;20192;-70
2024/03/22 05:27:42;;;;;;;3.03;2.13;;;23.20;55.50;;;;;;4992912;28;20193;-70
2024/03/22 05:30:09;;;;;;;3.00;2.40;;;23.20;55.60;;;;;;4995666;28;20682;-69
2024/03/22 05:32:34;;;;;;;2.43;2.23;;;23.20;55.60;;;;;;4996425;28;20456;-70
2024/03/22 05:35:00;;;;;;;2.47;1.93;;;23.20;55.60;;;;;;4996433;28;20436;-68
2024/03/22 05:37:26;;;;;;;3.33;2.13;;;23.20;55.60;;;;;;4978862;28;20176;-68
2024/03/22 05:39:52;;;;;;;3.10;2.40;;;23.20;55.60;;;;;;4978637;28;20197;-68
2024/03/22 05:42:17;;;;;;;3.63;2.30;;;23.20;55.60;;;;;;4996099;28;21281;-68
2024/03/22 05:44:44;;;;;;;3.00;2.30;;;23.20;55.60;;;;;;4996029;28;20212;-70
2024/03/22 05:47:10;;;;;;;3.10;2.70;;;23.20;55.60;;;;;;4996277;28;20761;-68
2024/03/22 05:49:36;;;;;;;3.40;2.40;;;23.20;55.60;;;;;;4995907;28;20452;-70
2024/03/22 05:52:01;;;;;;;3.40;2.30;;;23.20;55.50;;;;;;4996296;28;20239;-70
2024/03/22 05:54:27;;;;;;;2.83;2.50;;;23.20;55.50;;;;;;4995998;28;20176;-69
2024/03/22 05:56:52;;;;;;;2.53;2.23;;;23.20;55.50;;;;;;4996160;28;20207;-70
2024/03/22 05:59:18;;;;;;;3.80;2.30;;;23.20;55.50;;;;;;4995953;28;20245;-69
2024/03/22 06:01:44;;;;;;;3.30;3.00;;;23.20;55.50;;;;;;4995566;28;20177;-70
2024/03/22 06:04:10;;;;;;;2.73;2.40;;;23.20;55.50;;;;;;4996676;28;20181;-69
2024/03/22 06:06:35;;;;;;;2.60;2.40;;;23.20;55.50;;;;;;4961552;28;20180;-70
2024/03/22 06:09:08;;;;;;;2.43;2.07;;;23.20;55.50;;;;;;4995577;28;20181;-70
2024/03/22 06:11:34;;;;;;;3.13;2.60;;;23.20;55.40;;;;;;4996125;28;20700;-69
2024/03/22 06:14:00;;;;;;;2.50;2.30;;;23.20;55.40;;;;;;4995263;28;20412;-67
2024/03/22 06:16:25;;;;;;;3.90;2.70;;;23.20;55.40;;;;;;4995081;28;20176;-69
2024/03/22 06:18:51;;;;;;;2.37;2.00;;;23.20;55.40;;;;;;4994916;28;20268;-68
2024/03/22 06:21:21;;;;;;;4.13;2.47;;;23.20;55.40;;;;;;4994685;28;20544;-69
2024/03/22 06:23:49;;;;;;;3.33;2.70;;;23.20;55.50;;;;;;4995081;28;20239;-69
2024/03/22 06:26:15;;;;;;;3.80;2.90;;;23.20;55.40;;;;;;4994920;28;20415;-69
2024/03/22 06:28:40;;;;;;;3.23;2.13;;;23.20;55.40;;;;;;4994762;28;20974;-67
2024/03/22 06:31:06;;;;;;;3.50;2.33;;;23.20;55.50;;;;;;4995154;28;20204;-69
2024/03/22 06:33:31;;;;;;;2.70;2.20;;;23.20;55.50;;;;;;4994617;28;20185;-68
2024/03/22 06:35:57;;;;;;;3.30;2.57;;;23.20;55.50;;;;;;4995037;28;20177;-67
2024/03/22 06:38:23;;;;;;;4.43;2.73;;;23.20;55.50;;;;;;4994938;28;20655;-69
2024/03/22 06:40:48;;;;;;;2.93;2.37;;;23.20;55.50;;;;;;4994056;28;20248;-69
2024/03/22 06:43:14;;;;;;;3.27;2.40;;;23.20;55.50;;;;;;4994857;28;20181;-67
2024/03/22 06:45:39;;;;;;;2.50;2.23;;;23.20;55.50;;;;;;4994227;28;20181;-67
2024/03/22 06:48:05;;;;;;;2.37;2.00;;;23.20;55.50;;;;;;4976681;28;20181;-69
2024/03/22 06:50:31;;;;;;;2.63;2.37;;;23.20;55.50;;;;;;4994426;28;20260;-69
2024/03/22 06:52:56;;;;;;;3.10;2.00;;;23.20;55.50;;;;;;4994338;28;20288;-68
2024/03/22 06:55:22;;;;;;;2.57;2.07;;;23.20;55.50;;;;;;4976818;28;20209;-68
2024/03/22 06:57:49;;;;;;;2.93;2.33;;;23.20;55.50;;;;;;4995105;28;20640;-67
2024/03/22 07:00:15;;;;;;;2.40;2.20;;;23.30;55.50;;;;;;4994932;28;20432;-69
2024/03/22 07:02:41;;;;;;;2.33;2.10;;;23.20;55.50;;;;;;4994686;28;20504;-68
2024/03/22 07:05:08;;;;;;;3.00;2.23;;;23.20;55.40;;;;;;4994550;28;20922;-68
2024/03/22 07:07:34;;;;;;;2.50;2.10;;;23.20;55.40;;;;;;4994619;28;20271;-69
2024/03/22 07:10:00;;;;;;;3.83;2.43;;;23.30;55.50;;;;;;4994759;28;20806;-69
2024/03/22 07:12:25;;;;;;;3.10;2.20;;;23.30;55.50;;;;;;4994056;28;20460;-69
2024/03/22 07:14:51;;;;;;;4.07;2.80;;;23.30;55.50;;;;;;4994655;28;20183;-68
2024/03/22 07:17:17;;;;;;;2.37;1.90;;;23.30;55.50;;;;;;4993888;28;20169;-69
2024/03/22 07:19:42;;;;;;;2.80;2.10;;;23.30;55.50;;;;;;4993815;28;20189;-68
2024/03/22 07:22:08;;;;;;;3.17;2.00;;;23.30;55.50;;;;;;4993530;28;20200;-69
2024/03/22 07:24:34;;;;;;;2.40;2.20;;;23.30;55.50;;;;;;4993784;28;20290;-69
2024/03/22 07:26:59;;;;;;;2.83;2.10;;;23.30;55.50;;;;;;4994128;28;20176;-69
2024/03/22 07:29:25;;;;;;;2.93;2.30;;;23.30;55.50;;;;;;4993874;28;20193;-68
2024/03/22 07:31:50;;;;;;;1.97;1.80;;;23.30;55.50;;;;;;4993627;28;20305;-69
2024/03/22 07:34:16;;;;;;;2.83;2.10;;;23.30;55.50;;;;;;4993520;28;20173;-69
2024/03/22 07:36:42;;;;;;;2.20;2.00;;;23.30;55.50;;;;;;4993972;28;20636;-69
2024/03/22 07:39:07;;;;;;;4.23;2.73;;;23.30;55.50;;;;;;4993969;28;20181;-69
2024/03/22 07:41:34;;;;;;;2.70;2.10;;;23.30;55.50;;;;;;4993890;28;20188;-70
2024/03/22 07:44:01;;;;;;;3.33;2.60;;;23.30;55.50;;;;;;4994023;28;20667;-68
2024/03/22 07:46:26;;;;;;;2.77;2.30;;;23.30;55.50;;;;;;4993552;28;20486;-68
2024/03/22 07:48:53;;;;;;;2.27;2.07;;;23.30;55.50;;;;;;4976569;28;20490;-67
2024/03/22 07:51:19;;;;;;;2.70;1.80;;;23.30;55.50;;;;;;4992920;28;20543;-69
2024/03/22 07:53:45;;;;;;;2.80;2.20;;;23.30;55.50;;;;;;4976122;28;20177;-69
2024/03/22 07:56:12;;;;;;;1.83;1.70;;;23.30;55.50;;;;;;4994064;28;20411;-68
2024/03/22 07:58:38;;;;;;;5.73;1.67;;;23.30;55.50;;;;;;4993100;28;20191;-69
2024/03/22 08:01:04;;;;;;;2.60;2.10;;;23.30;55.50;;;;;;4993229;28;20928;-69
2024/03/22 08:03:30;;;;;;;2.57;2.20;;;23.30;55.50;;;;;;4993349;28;20480;-69
2024/03/22 08:05:55;;;;;;;3.60;3.30;;;23.30;55.50;;;;;;4993023;28;20180;-69
2024/03/22 08:08:21;;;;;;;3.30;2.43;;;23.30;55.50;;;;;;4993145;28;20187;-69
2024/03/22 08:10:46;;;;;;;3.63;2.47;;;23.30;55.50;;;;;;4992714;28;20211;-68
2024/03/22 08:13:12;;;;;;;2.73;2.10;;;23.30;55.50;;;;;;4993347;28;20196;-69
2024/03/22 08:15:38;;;;;;;3.33;2.07;;;23.30;55.50;;;;;;4993473;28;20192;-69
2024/03/22 08:18:03;;;;;;;2.17;1.77;;;23.30;55.50;;;;;;4993518;28;20556;-69
2024/03/22 08:20:30;;;;;;;2.17;1.80;;;23.40;55.60;;;;;;4993085;28;20185;-68
2024/03/22 08:22:55;;;;;;;2.37;1.77;;;23.40;55.60;;;;;;4993944;28;20710;-68
2024/03/22 08:25:23;;;;;;;2.37;1.70;;;23.30;55.50;;;;;;4993522;28;20437;-69
2024/03/22 08:27:48;;;;;;;3.40;2.07;;;23.40;55.50;;;;;;4993051;28;20181;-69
2024/03/22 08:30:14;;;;;;;3.40;2.07;;;23.40;55.60;;;;;;4993285;28;20440;-69
2024/03/22 08:32:39;;;;;;;3.20;2.00;;;23.40;55.60;;;;;;4993638;28;20280;-67
2024/03/22 08:35:05;;;;;;;1.97;1.63;;;23.40;55.60;;;;;;4993349;28;20177;-69
2024/03/22 08:37:33;;;;;;;2.33;1.80;;;23.40;55.60;;;;;;4993285;28;20176;-69
2024/03/22 08:39:58;;;;;;;2.93;1.83;;;23.40;55.60;;;;;;4992939;28;20192;-69
2024/03/22 08:42:24;;;;;;;2.40;1.90;;;23.40;55.60;;;;;;4993331;28;20431;-69
2024/03/22 08:44:50;;;;;;;2.73;1.87;;;23.40;55.60;;;;;;4993405;28;20188;-69
2024/03/22 08:47:15;;;;;;;3.47;2.00;;;23.40;55.60;;;;;;4992856;28;20176;-68
2024/03/22 08:49:43;;;;;;;4.23;2.57;;;23.40;55.60;;;;;;4992703;28;20220;-69
2024/03/22 08:52:09;;;;;;;2.23;1.83;;;23.40;55.60;;;;;;4992745;28;20291;-69
2024/03/22 08:54:34;;;;;;;2.33;1.80;;;23.40;55.50;;;;;;4992980;28;20838;-68
2024/03/22 08:57:00;;;;;;;2.10;1.70;;;23.40;55.50;;;;;;4992978;28;20193;-67
2024/03/22 08:59:26;;;;;;;2.63;1.90;;;23.40;55.50;;;;;;4993301;28;20691;-69
2024/03/22 09:01:52;;;;;;;2.20;1.77;;;23.40;55.60;;;;;;4993563;28;20181;-68
2024/03/22 09:04:17;;;;;;;2.20;2.00;;;23.40;55.50;;;;;;4995376;28;20423;-70
2024/03/22 09:06:43;;;;;;;4.87;2.07;;;23.40;55.50;;;;;;4996601;28;20255;-70
2024/03/22 09:09:09;;;;;;;3.27;2.27;;;23.40;55.50;;;;;;4979133;28;20185;-69
2024/03/22 09:11:34;;;;;;;2.70;1.90;;;23.40;55.60;;;;;;4996523;28;20254;-68
2024/03/22 09:14:00;;;;;;;2.50;2.03;;;23.40;55.60;;;;;;4996772;28;20177;-67
2024/03/22 09:16:25;;;;;;;2.40;1.70;;;23.40;55.50;;;;;;4996903;28;20181;-69
2024/03/22 09:18:51;;;;;;;2.60;2.00;;;23.40;55.50;;;;;;4997187;28;20173;-68
2024/03/22 09:21:16;;;;;;;2.10;1.70;;;23.40;55.50;;;;;;4996668;28;20220;-68
2024/03/22 09:23:42;;;;;;;2.10;1.70;;;23.40;55.50;;;;;;4996327;28;20569;-68
2024/03/22 09:26:08;;;;;;;2.83;2.00;;;23.50;55.60;;;;;;4996224;28;20187;-68
2024/03/22 09:28:33;;;;;;;2.60;2.00;;;23.40;55.50;;;;;;4978526;28;20265;-69
2024/03/22 09:31:06;;;;;;;4.07;2.00;;;23.40;55.60;;;;;;4995696;28;20197;-69
2024/03/22 09:33:35;;;;;;;2.03;1.83;;;23.40;55.50;;;;;;4995871;28;20169;-69
2024/03/22 09:36:04;;;;;;;2.07;1.87;;;23.50;55.60;;;;;;4995745;28;20845;-68
2024/03/22 09:38:30;;;;;;;2.10;1.90;;;23.50;55.60;;;;;;4978418;28;21014;-69
2024/03/22 09:40:56;;;;;;;2.17;1.70;;;23.50;55.60;;;;;;4995823;28;20515;-69
2024/03/22 09:43:21;;;;;;;2.23;1.83;;;23.50;55.60;;;;;;4996858;28;20336;-71
2024/03/22 09:45:49;;;;;;;3.43;1.90;;;23.40;55.50;;;;;;4997132;28;20181;-69
2024/03/22 09:48:18;;;;;;;2.23;2.00;;;23.40;55.50;;;;;;4996509;28;20207;-69
2024/03/22 09:50:47;;;;;;;3.93;2.00;;;23.40;55.60;;;;;;4996973;28;20464;-71
2024/03/22 09:53:17;;;;;;;2.63;2.30;;;23.40;55.60;;;;;;4999332;28;20471;-71
2024/03/22 09:55:45;;;;;;;3.13;2.53;;;23.40;55.60;;;;;;4998645;28;20439;-70
2024/03/22 09:58:10;;;;;;;2.53;2.00;;;23.40;55.60;;;;;;4998051;28;20462;-68
2024/03/22 10:00:36;;;;;;;2.20;1.83;;;23.40;55.60;;;;;;4998398;28;20424;-69
2024/03/22 10:03:03;;;;;;;2.07;1.60;;;23.40;55.60;;;;;;4997794;28;20185;-70
2024/03/22 10:05:29;;;;;;;2.90;2.00;;;23.40;55.60;;;;;;4979553;28;20238;-71
2024/03/22 10:07:55;;;;;;;4.23;1.93;;;23.40;55.60;;;;;;4997584;28;20436;-70
2024/03/22 10:10:21;;;;;;;2.23;1.97;;;23.40;56.20;;;;;;4996912;28;20201;-69
2024/03/22 10:12:47;;;;;;;2.37;2.17;;;23.40;55.70;;;;;;4997469;28;20467;-70
2024/03/22 10:15:13;;;;;;;2.60;2.10;;;23.40;55.70;;;;;;4997453;28;20259;-70
2024/03/22 10:17:39;;;;;;;2.30;2.00;;;23.40;55.70;;;;;;4998022;28;20859;-70
2024/03/22 10:20:15;;;;;;;2.17;1.60;;;23.40;55.70;;;;;;4998079;28;20197;-70
2024/03/22 10:22:48;;;;;;;2.10;1.90;;;23.40;55.70;;;;;;4997795;28;20408;-70
2024/03/22 10:25:14;;;;;;;3.53;1.50;;;23.40;55.70;;;;;;4997462;28;20423;-69
2024/03/22 10:27:40;;;;;;;2.10;1.90;;;23.40;55.70;;;;;;4996912;28;20519;-69
2024/03/22 10:30:09;;;;;;;2.20;1.90;;;23.40;55.70;;;;;;4996661;28;20606;-70
2024/03/22 10:32:36;;;;;;;2.90;1.97;;;23.50;55.80;;;;;;4996479;28;20464;-71
2024/03/22 10:35:06;;;;;;;1.97;1.73;;;23.50;55.80;;;;;;4996942;28;20420;-70
2024/03/22 10:37:33;;;;;;;3.50;2.07;;;23.50;55.80;;;;;;4996369;28;20417;-70
2024/03/22 10:40:07;;;;;;;4.40;1.70;;;23.50;55.80;;;;;;4997064;28;20443;-70
2024/03/22 10:42:34;;;;;;;3.70;2.17;;;23.50;55.80;;;;;;4996884;28;20407;-70
2024/03/22 10:44:59;;;;;;;1.77;1.60;;;23.50;55.80;;;;;;4997127;28;20435;-69
2024/03/22 10:47:29;;;;;;;3.20;1.83;;;23.50;55.80;;;;;;4994818;28;20424;-70
2024/03/22 10:50:10;;;;;;;4.13;2.10;;;23.50;55.80;;;;;;4994121;28;20423;-71
2024/03/22 10:52:41;;;;;;;3.33;1.90;;;23.50;55.80;;;;;;4994108;28;20476;-70
2024/03/22 10:55:12;;;;;;;2.00;1.80;;;23.50;55.90;;;;;;4994150;28;20409;-68
2024/03/22 10:57:38;;;;;;;2.10;1.70;;;23.50;55.90;;;;;;4995083;28;20875;-67
2024/03/22 11:00:10;;;;;;;3.67;2.27;;;23.50;55.90;;;;;;4976788;28;20535;-67
2024/03/22 11:02:36;;;;;;;2.97;1.87;;;23.50;55.90;;;;;;4993797;28;20411;-70
2024/03/22 11:05:02;;;;;;;2.47;2.10;;;23.50;55.90;;;;;;4993212;28;20455;-69
2024/03/22 11:07:31;;;;;;;2.30;2.00;;;23.50;55.90;;;;;;4993489;28;20416;-70
2024/03/22 11:09:58;;;;;;;2.50;1.93;;;23.50;55.90;;;;;;4993966;28;20432;-68
2024/03/22 11:12:28;;;;;;;2.10;1.90;;;23.50;55.90;;;;;;4993996;28;20546;-69
2024/03/22 11:14:54;;;;;;;3.47;2.10;;;23.50;56.40;;;;;;4976371;28;20428;-70
2024/03/22 11:17:22;;;;;;;2.33;1.77;;;23.50;55.80;;;;;;4994100;28;20427;-69
2024/03/22 11:19:48;;;;;;;3.37;2.00;;;23.50;55.90;;;;;;4994125;28;20468;-70
2024/03/22 11:22:14;;;;;;;2.23;1.73;;;23.50;55.80;;;;;;4993995;28;20499;-70
2024/03/22 11:24:41;;;;;;;4.33;2.00;;;23.50;55.80;;;;;;4993479;28;20650;-70
2024/03/22 11:27:07;;;;;;;3.00;2.03;;;23.50;55.80;;;;;;4993278;28;20474;-70
2024/03/22 11:29:33;;;;;;;2.57;1.70;;;23.50;55.80;;;;;;4993880;28;20527;-70
2024/03/22 11:32:00;;;;;;;3.03;2.00;;;23.50;55.80;;;;;;4993808;28;20464;-70
2024/03/22 11:34:26;;;;;;;2.50;1.80;;;23.50;55.80;;;;;;4993893;28;20847;-70
2024/03/22 11:36:53;;;;;;;2.93;1.90;;;23.50;55.80;;;;;;4993839;28;20419;-69
2024/03/22 11:39:19;;;;;;;4.30;1.90;;;23.50;55.80;;;;;;4994179;28;20235;-70
2024/03/22 11:41:45;;;;;;;4.40;2.03;;;23.50;55.80;;;;;;4993666;28;20420;-71
2024/03/22 11:44:11;;;;;;;5.10;2.37;;;23.50;55.80;;;;;;4993533;28;20251;-69
2024/03/22 11:46:37;;;;;;;4.67;1.97;;;23.50;55.80;;;;;;4993584;28;20475;-69
2024/03/22 11:49:04;;;;;;;2.83;1.90;;;23.50;55.80;;;;;;4975384;28;20423;-69
2024/03/22 11:51:30;;;;;;;4.77;2.53;;;23.50;55.80;;;;;;4974645;28;20217;-70
2024/03/22 11:53:56;;;;;;;4.40;2.33;;;23.50;55.80;;;;;;4992695;28;20412;-70
2024/03/22 11:56:22;;;;;;;4.00;2.20;;;23.50;55.80;;;;;;4975164;28;21264;-70
2024/03/22 11:58:49;;;;;;;3.00;2.00;;;23.50;55.80;;;;;;4992511;28;20173;-71
2024/03/22 12:01:20;;;;;;;3.03;2.60;;;23.50;55.80;;;;;;4974826;28;20432;-69
2024/03/22 12:03:48;;;;;;;3.57;2.30;;;23.50;55.80;;;;;;4993093;28;20424;-68
2024/03/22 12:06:15;;;;;;;4.07;2.30;;;23.50;55.80;;;;;;4992661;28;20839;-70
2024/03/22 12:08:41;;;;;;;4.87;2.97;;;23.50;55.80;;;;;;4992473;28;20420;-70
2024/03/22 12:11:10;;;;;;;4.50;2.83;;;23.50;55.80;;;;;;4992831;28;20428;-70
2024/03/22 12:13:37;;;;;;;7.53;4.37;;;23.50;55.80;;;;;;4992414;28;20169;-70
2024/03/22 12:16:04;;;;;;;6.90;4.50;;;23.50;55.80;;;;;;4992217;28;20442;-70
2024/03/22 12:18:31;;;;;;;18.60;10.10;;;23.50;55.80;;;;;;4992248;28;20491;-70
2024/03/22 12:20:56;;;;;;;17.93;9.00;;;23.50;55.70;;;;;;4992365;28;20427;-70
2024/03/22 12:23:23;;;;;;;17.60;9.20;;;23.50;55.70;;;;;;4974385;28;20431;-69
2024/03/22 12:25:50;;;;;;;25.00;9.60;;;23.50;55.70;;;;;;4991975;28;20268;-70
2024/03/22 12:28:16;;;;;;;16.37;9.57;;;23.50;56.20;;;;;;4992175;28;20496;-70
2024/03/22 12:30:41;;;;;;;18.10;10.70;;;23.50;55.70;;;;;;4992194;28;20435;-70
2024/03/22 12:33:10;;;;;;;9.93;6.90;;;23.50;55.70;;;;;;4992350;28;20666;-68
2024/03/22 12:35:39;;;;;;;13.13;8.93;;;23.40;55.60;;;;;;4991782;28;20172;-69
2024/03/22 12:38:05;;;;;;;14.90;8.70;;;23.40;55.70;;;;;;5002760;28;20427;-68
2024/03/22 12:40:32;;;;;;;15.97;8.10;;;23.40;55.70;;;;;;4998460;28;20444;-67